Map

Track Data

SID SEASON NUMBER BASIN SUBBASIN NAME ISO_TIME NATURE LAT LON WMO_WIND WMO_PRES WMO_AGENCY TRACK_TYPE DIST2LAND LANDFALL IFLAG USA_AGENCY USA_ATCF_ID USA_LAT USA_LON USA_RECORD USA_STATUS USA_WIND USA_PRES USA_SSHS USA_R34_NE USA_R34_SE USA_R34_SW USA_R34_NW USA_R50_NE USA_R50_SE USA_R50_SW USA_R50_NW USA_R64_NE USA_R64_SE USA_R64_SW USA_R64_NW USA_POCI USA_ROCI USA_RMW USA_EYE TOKYO_LAT TOKYO_LON TOKYO_GRADE TOKYO_WIND TOKYO_PRES TOKYO_R50_DIR TOKYO_R50_LONG TOKYO_R50_SHORT TOKYO_R30_DIR TOKYO_R30_LONG TOKYO_R30_SHORT TOKYO_LAND CMA_LAT CMA_LON CMA_CAT CMA_WIND CMA_PRES HKO_LAT HKO_LON HKO_CAT HKO_WIND HKO_PRES NEWDELHI_LAT NEWDELHI_LON NEWDELHI_GRADE NEWDELHI_WIND NEWDELHI_PRES NEWDELHI_CI NEWDELHI_DP NEWDELHI_POCI REUNION_LAT REUNION_LON REUNION_TYPE REUNION_WIND REUNION_PRES REUNION_TNUM REUNION_CI REUNION_RMW REUNION_R34_NE REUNION_R34_SE REUNION_R34_SW REUNION_R34_NW REUNION_R50_NE REUNION_R50_SE REUNION_R50_SW REUNION_R50_NW REUNION_R64_NE REUNION_R64_SE REUNION_R64_SW REUNION_R64_NW BOM_LAT BOM_LON BOM_TYPE BOM_WIND BOM_PRES BOM_TNUM BOM_CI BOM_RMW BOM_R34_NE BOM_R34_SE BOM_R34_SW BOM_R34_NW BOM_R50_NE BOM_R50_SE BOM_R50_SW BOM_R50_NW BOM_R64_NE BOM_R64_SE BOM_R64_SW BOM_R64_NW BOM_ROCI BOM_POCI BOM_EYE BOM_POS_METHOD BOM_PRES_METHOD NADI_LAT NADI_LON NADI_CAT NADI_WIND NADI_PRES WELLINGTON_LAT WELLINGTON_LON WELLINGTON_WIND WELLINGTON_PRES DS824_LAT DS824_LON DS824_STAGE DS824_WIND DS824_PRES TD9636_LAT TD9636_LON TD9636_STAGE TD9636_WIND TD9636_PRES TD9635_LAT TD9635_LON TD9635_WIND TD9635_PRES TD9635_ROCI NEUMANN_LAT NEUMANN_LON NEUMANN_CLASS NEUMANN_WIND NEUMANN_PRES MLC_LAT MLC_LON MLC_CLASS MLC_WIND MLC_PRES USA_GUST BOM_GUST BOM_GUST_PER REUNION_GUST REUNION_GUST_PER USA_SEAHGT USA_SEARAD_NE USA_SEARAD_SE USA_SEARAD_SW USA_SEARAD_NW STORM_SPEED STORM_DIR
1898225N24090 1898 28 NI BB NOT_NAMED 1898-08-13 00:00:00 TS 23.6000 89.8000 main 0 0 _________O____ -1 23.6000 89.8000 TC 30 1 298
1898225N24090 1898 28 NI BB NOT_NAMED 1898-08-13 03:00:00 TS 23.6267 89.7333 main 0 0 _________PO___ -1 23.6400 89.7000 TC 30 23.6000 89.8000 1 2 300
1898225N24090 1898 28 NI BB NOT_NAMED 1898-08-13 06:00:00 TS 23.6882 89.6314 main 0 0 _________OP___ -1 23.7000 89.6000 TC 30 23.6706 89.6784 1 2 308
1898225N24090 1898 28 NI BB NOT_NAMED 1898-08-13 09:00:00 TS 23.7712 89.5280 main 0 0 _________PP___ -1 23.7925 89.5000 TC 30 23.7429 89.5654 1 2 313
1898225N24090 1898 28 NI BB NOT_NAMED 1898-08-13 12:00:00 TS 23.8594 89.4348 main 0 0 _________OP___ -1 23.9000 89.4000 TC 30 23.8188 89.4697 1 2 318
1898225N24090 1898 28 NI BB NOT_NAMED 1898-08-13 15:00:00 TS 23.9500 89.3500 main 0 0 _________PO___ -1 24.0000 89.3000 TC 30 23.9000 89.4000 1 2 322
1898225N24090 1898 28 NI BB NOT_NAMED 1898-08-13 18:00:00 TS 24.0441 89.2782 main 0 0 _________OP___ -1 24.1000 89.2000 TC 30 23.9882 89.3565 1 2 329
1898225N24090 1898 28 NI BB NOT_NAMED 1898-08-13 21:00:00 TS 24.1382 89.2283 main 0 0 _________PP___ -1 24.1923 89.1523 TC 30 24.0841 89.3043 1 3 320
1898225N24090 1898 28 NI BB NOT_NAMED 1898-08-14 00:00:00 TS 24.2440 89.1000 main 0 0 _________OP___ -1 24.3000 89.0000 TC 30 24.1879 89.2001 1 5 301
1898225N24090 1898 28 NI BB NOT_NAMED 1898-08-14 03:00:00 TS 24.3751 88.8013 main 0 0 _________PO___ -1 24.4502 88.6027 TC 30 24.3000 89.0000 1 7 292
1898225N24090 1898 28 NI BB NOT_NAMED 1898-08-14 06:00:00 TS 24.5133 88.3735 main 0 0 _________OP___ -1 24.6000 88.1000 TC 30 24.4266 88.6470 1 8 288
1898225N24090 1898 28 NI BB NOT_NAMED 1898-08-14 09:00:00 TS 24.6367 87.9240 main 0 0 _________PP___ -1 24.7149 87.6499 TC 30 24.5585 88.1981 1 9 285
1898225N24090 1898 28 NI BB NOT_NAMED 1898-08-14 12:00:00 TS 24.7430 87.4500 main 0 0 _________OP___ -1 24.8000 87.2000 TC 30 24.6859 87.7001 1 9 282
1898225N24090 1898 28 NI BB NOT_NAMED 1898-08-14 15:00:00 TS 24.8250 86.9712 main 0 0 _________PO___ -1 24.8499 86.7423 TC 30 24.8000 87.2000 1 9 280
1898225N24090 1898 28 NI BB NOT_NAMED 1898-08-14 18:00:00 TS 24.8968 86.5135 main 0 0 _________OP___ -1 24.9000 86.3000 TC 30 24.8936 86.7270 1 8 281
1898225N24090 1898 28 NI BB NOT_NAMED 1898-08-14 21:00:00 TS 24.9865 86.0612 main 0 0 _________PP___ -1 25.0001 85.8551 TC 30 24.9729 86.2674 1 8 283
1898225N24090 1898 28 NI BB NOT_NAMED 1898-08-15 00:00:00 TS 25.0703 85.6745 main 0 0 _________OP___ -1 25.1000 85.5000 TC 30 25.0406 85.8490 1 6 284
1898225N24090 1898 28 NI BB NOT_NAMED 1898-08-15 03:00:00 TS 25.1286 85.4099 main 0 0 _________PO___ -1 25.1573 85.3199 TC 30 25.1000 85.5000 1 4 285
1898225N24090 1898 28 NI BB NOT_NAMED 1898-08-15 06:00:00 TS 25.1782 85.2305 main 0 0 _________OP___ -1 25.2000 85.2000 TC 30 25.1564 85.2609 1 3 287
1898225N24090 1898 28 NI BB NOT_NAMED 1898-08-15 09:00:00 TS 25.2283 85.0486 main 0 0 _________PP___ -1 25.2500 85.0075 TC 30 25.2065 85.0896 1 3 287
1898225N24090 1898 28 NI BB NOT_NAMED 1898-08-15 12:00:00 TS 25.2767 84.8743 main 0 0 _________OP___ -1 25.3000 84.8000 TC 30 25.2534 84.9485 1 3 287
1898225N24090 1898 28 NI BB NOT_NAMED 1898-08-15 15:00:00 TS 25.3250 84.7037 main 0 0 _________PO___ -1 25.3499 84.6075 TC 30 25.3000 84.8000 1 3 286
1898225N24090 1898 28 NI BB NOT_NAMED 1898-08-15 18:00:00 TS 25.3705 84.5226 main 0 0 _________OP___ -1 25.4000 84.4000 TC 30 25.3484 84.6146 1 4 284
1898225N24090 1898 28 NI BB NOT_NAMED 1898-08-15 21:00:00 TS 25.4190 84.3012 main 0 0 _________PP___ -1 25.4501 84.1600 TC 30 25.3983 84.3953 1 4 283
1898225N24090 1898 28 NI BB NOT_NAMED 1898-08-16 00:00:00 TS 25.4660 84.0689 main 0 0 _________OP___ -1 25.5000 83.9000 TC 30 25.4491 84.1534 1 4 283
1898225N24090 1898 28 NI BB NOT_NAMED 1898-08-16 03:00:00 NR 25.5000 83.9000 main 0 __________O___ -1 TC 25.5000 83.9000 1 3 282

About IBTrACS Database

This database is a web-friendly format of International Best Track Archive for Climate Stewardship (IBTrACS), a global best track data archive curated by NOAA dating back to 1842.

Updated: 2021-10-21